Terminal Aerodrome Forecast
Issued by NWS

Home | Current Version | Previous Version | Graphics & Text | Print | Product List | Glossary Off
Versions: 1 2 3 4 5 6 7 8 9 10 11 12 13 14 15 16 17 18 19 20 21 22 23 24 25 26 27 28 29 30 31 32 33 34 35 36 37 38

274
FTUS43 KDDC 281048 AAE
TAFGCK
TAF AMD
KGCK 281048Z 2811/2906 VRB06KT P6SM SCT200
     FM281145 34020G35KT P6SM VCTS BKN070CB
      TEMPO 2812/2813 VRB25G40KT 3SM -TSRA BKN030CB
     FM281400 12011KT P6SM SCT050
     FM290100 12011KT P6SM VCTS BKN060CB=

USA.gov is the U.S. government's official web portal to all federal, state and local government web resources and services.